Time;durP1;ratioP1;P1;durP2;ratioP2;P2;SDS_P1;SDS_P2;PMS_P1;PMS_P2;Temp;Humidity;BMP_temperature;BMP_pressure;BME280_temperature;BME280_humidity;BME280_pressure;Samples;Min_cycle;Max_cycle;Signal;HPM_P1;HPM_P2
2023/01/01 00:01:45;;;;;;;13.43;10.40;;;15.70;73.00;;;;;;10351037;28;20026;-62
2023/01/01 00:06:46;;;;;;;13.93;11.30;;;15.70;73.00;;;;;;10351756;28;20022;-61
2023/01/01 00:11:46;;;;;;;13.70;12.02;;;15.70;73.10;;;;;;10336228;28;20089;-60
2023/01/01 00:16:47;;;;;;;13.02;11.73;;;15.70;73.10;;;;;;10345617;28;20117;-59
2023/01/01 00:21:48;;;;;;;16.50;11.95;;;15.70;73.10;;;;;;10361406;28;20022;-59
2023/01/01 00:26:49;;;;;;;14.50;13.02;;;15.70;73.00;;;;;;10354193;28;20022;-61
2023/01/01 00:31:49;;;;;;;14.10;12.63;;;15.70;73.00;;;;;;10371827;28;20101;-61
2023/01/01 00:36:50;;;;;;;15.70;13.07;;;15.70;73.00;;;;;;10371334;28;20478;-57
2023/01/01 00:41:51;;;;;;;13.90;12.13;;;15.80;72.90;;;;;;10351483;28;20049;-59
2023/01/01 00:46:51;;;;;;;15.43;12.88;;;15.70;72.70;;;;;;10357855;28;20072;-60
2023/01/01 00:51:52;;;;;;;14.35;12.85;;;15.80;72.80;;;;;;10361987;28;20104;-61
2023/01/01 00:56:54;;;;;;;17.25;14.05;;;15.80;72.70;;;;;;10365487;28;20045;-62
2023/01/01 01:01:55;;;;;;;16.30;14.02;;;15.80;72.70;;;;;;10368794;28;20018;-62
2023/01/01 01:06:55;;;;;;;14.18;12.60;;;15.80;72.70;;;;;;10359437;28;20033;-61
2023/01/01 01:11:56;;;;;;;16.83;14.48;;;15.80;72.80;;;;;;10330422;28;20109;-60
2023/01/01 01:16:57;;;;;;;14.35;12.85;;;15.80;72.70;;;;;;10351625;28;20036;-60
2023/01/01 01:21:57;;;;;;;16.17;14.57;;;15.80;72.70;;;;;;10339838;28;20018;-54
2023/01/01 01:26:58;;;;;;;15.85;14.25;;;15.80;72.70;;;;;;10369408;28;20053;-57
2023/01/01 01:31:59;;;;;;;16.77;14.13;;;15.80;72.70;;;;;;10366288;28;20061;-62
2023/01/01 01:36:59;;;;;;;14.95;13.38;;;15.80;72.80;;;;;;10330944;28;20534;-61
2023/01/01 01:42:02;;;;;;;14.40;12.98;;;15.70;72.70;;;;;;10335819;28;20378;-60
2023/01/01 01:47:03;;;;;;;15.85;14.25;;;15.80;72.70;;;;;;10368938;28;20024;-60
2023/01/01 01:52:04;;;;;;;15.57;13.63;;;15.70;72.70;;;;;;10353394;28;20028;-61
2023/01/01 01:57:08;;;;;;;15.32;13.73;;;15.70;72.70;;;;;;10368233;28;20040;-58
2023/01/01 02:02:37;;;;;;;15.30;13.90;;;15.80;72.80;;;;;;10365570;28;20022;-59
2023/01/01 02:07:39;;;;;;;15.80;14.30;;;15.70;72.70;;;;;;10367097;28;20022;-59
2023/01/01 02:12:39;;;;;;;15.93;14.30;;;15.70;72.70;;;;;;10353657;28;20046;-61
2023/01/01 02:17:53;;;;;;;14.82;13.02;;;15.80;72.80;;;;;;10325687;28;20022;-61
2023/01/01 02:23:30;;;;;;;17.27;13.88;;;15.70;72.80;;;;;;10363296;28;20025;-60
2023/01/01 02:28:52;;;;;;;16.05;14.18;;;15.70;72.80;;;;;;10365866;28;20374;-60
2023/01/01 02:33:58;;;;;;;15.10;13.50;;;15.70;72.80;;;;;;10361275;28;20468;-60
2023/01/01 02:39:02;;;;;;;16.63;14.95;;;15.70;72.80;;;;;;10352509;28;20014;-58
2023/01/01 02:44:04;;;;;;;18.92;15.73;;;15.70;72.80;;;;;;10363437;28;20032;-61
2023/01/01 02:49:04;;;;;;;15.95;13.95;;;15.70;72.70;;;;;;10364503;28;20437;-62
2023/01/01 02:54:16;;;;;;;17.50;14.02;;;15.70;72.70;;;;;;10352428;28;20088;-61
2023/01/01 03:04:52;;;;;;;15.43;13.77;;;15.70;72.70;;;;;;10360434;28;20045;-61
2023/01/01 03:10:08;;;;;;;14.93;13.40;;;15.70;72.80;;;;;;10354169;28;20050;-62
2023/01/01 03:15:44;;;;;;;14.98;13.40;;;15.70;72.70;;;;;;10363482;28;20099;-59
2023/01/01 03:20:49;;;;;;;17.23;15.43;;;15.70;72.70;;;;;;10364882;28;20025;-62
2023/01/01 03:25:54;;;;;;;15.57;13.98;;;15.70;72.80;;;;;;10332283;28;20048;-60
2023/01/01 03:30:56;;;;;;;14.60;13.07;;;15.70;72.70;;;;;;10364820;28;20060;-61
2023/01/01 03:36:02;;;;;;;15.05;13.55;;;15.70;72.70;;;;;;10336579;28;20121;-60
2023/01/01 03:41:40;;;;;;;14.35;12.88;;;15.70;72.80;;;;;;10358870;28;20058;-62
2023/01/01 03:46:41;;;;;;;14.40;13.00;;;15.70;72.70;;;;;;10281713;28;20458;-61
2023/01/01 03:52:32;;;;;;;15.18;13.48;;;15.70;72.70;;;;;;10343776;28;20018;-58
2023/01/01 03:57:52;;;;;;;15.05;12.98;;;15.70;72.80;;;;;;10319935;28;20485;-60
2023/01/01 04:03:08;;;;;;;14.65;13.18;;;15.70;72.70;;;;;;10367053;28;20018;-60
2023/01/01 04:08:10;;;;;;;15.65;13.90;;;15.70;72.70;;;;;;10368496;28;20469;-60
2023/01/01 04:13:11;;;;;;;14.35;12.18;;;15.70;72.70;;;;;;10316302;28;20126;-57
2023/01/01 04:18:12;;;;;;;15.50;13.25;;;15.70;72.70;;;;;;10371455;28;20031;-61
2023/01/01 04:23:12;;;;;;;14.50;12.23;;;15.70;72.70;;;;;;10371866;28;20109;-61
2023/01/01 04:28:13;;;;;;;13.50;12.20;;;15.70;72.70;;;;;;10358375;28;20084;-61
2023/01/01 04:33:13;;;;;;;13.98;12.57;;;15.70;72.70;;;;;;10370292;28;20109;-61
2023/01/01 04:38:14;;;;;;;14.23;12.40;;;15.70;72.70;;;;;;10361911;28;20060;-59
2023/01/01 04:43:15;;;;;;;13.07;11.80;;;15.70;72.60;;;;;;10370718;28;20104;-59
2023/01/01 04:48:15;;;;;;;14.18;12.50;;;15.80;72.60;;;;;;10362817;28;20516;-60
2023/01/01 04:53:16;;;;;;;13.68;12.20;;;15.70;72.40;;;;;;10358298;28;20113;-60
2023/01/01 04:58:17;;;;;;;13.85;12.35;;;15.70;72.40;;;;;;10366876;28;20117;-59
2023/01/01 05:03:17;;;;;;;13.05;11.70;;;15.80;72.40;;;;;;10364657;28;20054;-62
2023/01/01 05:08:18;;;;;;;13.32;11.00;;;15.70;72.50;;;;;;10367804;28;20079;-61
2023/01/01 05:13:18;;;;;;;13.25;11.85;;;15.70;72.40;;;;;;10355446;28;20466;-61
2023/01/01 05:18:19;;;;;;;12.10;10.90;;;15.70;72.40;;;;;;10329458;28;20050;-62
2023/01/01 05:23:20;;;;;;;15.07;12.23;;;15.70;72.50;;;;;;10356663;28;20120;-60
2023/01/01 05:28:22;;;;;;;11.48;10.27;;;15.80;72.40;;;;;;10369052;28;20100;-60
2023/01/01 05:33:23;;;;;;;13.02;10.35;;;15.80;72.40;;;;;;10353311;28;20088;-61
2023/01/01 05:38:23;;;;;;;12.40;11.18;;;15.80;72.40;;;;;;10358777;28;20127;-62
2023/01/01 05:43:24;;;;;;;11.90;9.98;;;15.80;72.50;;;;;;10350591;28;20029;-61
2023/01/01 05:48:25;;;;;;;11.70;10.52;;;15.70;72.40;;;;;;10368780;28;20109;-59
2023/01/01 05:53:25;;;;;;;11.40;10.23;;;15.70;72.40;;;;;;10368451;28;20117;-59
2023/01/01 05:58:28;;;;;;;10.63;9.13;;;15.70;72.30;;;;;;10366845;28;20080;-61
2023/01/01 06:03:29;;;;;;;11.70;10.00;;;15.70;72.30;;;;;;10366911;28;20037;-59
2023/01/01 06:08:29;;;;;;;12.88;11.20;;;15.80;72.40;;;;;;10355440;28;20592;-58
2023/01/01 06:13:31;;;;;;;11.77;10.00;;;15.70;72.40;;;;;;10356143;28;20052;-59
2023/01/01 06:18:33;;;;;;;10.85;9.73;;;15.70;72.40;;;;;;10367589;28;20092;-61
2023/01/01 06:23:35;;;;;;;9.55;8.32;;;15.70;72.20;;;;;;10367455;28;20022;-59
2023/01/01 06:28:36;;;;;;;10.45;9.23;;;15.80;72.10;;;;;;10364698;28;20029;-62
2023/01/01 06:33:37;;;;;;;10.00;8.88;;;15.80;72.10;;;;;;10359599;28;20397;-59
2023/01/01 06:38:41;;;;;;;10.13;8.70;;;15.80;72.10;;;;;;10324950;28;20025;-58
2023/01/01 06:43:43;;;;;;;11.48;9.57;;;15.80;72.00;;;;;;10349345;28;20123;-60
2023/01/01 06:48:55;;;;;;;10.38;8.65;;;15.80;72.00;;;;;;10482778;28;20808;-61
2023/01/01 06:54:00;;;;;;;10.85;8.88;;;15.80;72.10;;;;;;10438022;28;20025;-60
2023/01/01 06:59:01;;;;;;;8.75;7.85;;;15.80;72.00;;;;;;10440948;28;20013;-60
2023/01/01 07:04:06;;;;;;;10.55;8.43;;;15.80;72.00;;;;;;10440774;28;20400;-58
2023/01/01 07:09:07;;;;;;;8.73;7.72;;;15.80;72.10;;;;;;10407769;28;20128;-59
2023/01/01 07:14:08;;;;;;;9.68;8.63;;;15.80;72.10;;;;;;10401188;28;20060;-60
2023/01/01 07:19:08;;;;;;;8.35;7.43;;;15.80;72.40;;;;;;10416142;28;20116;-60
2023/01/01 07:24:12;;;;;;;8.68;7.57;;;15.80;72.20;;;;;;10399076;28;20026;-60
2023/01/01 07:29:13;;;;;;;9.82;8.82;;;15.80;72.20;;;;;;10408875;28;20033;-61
2023/01/01 07:34:18;;;;;;;9.05;8.00;;;15.70;72.10;;;;;;10415696;28;20029;-58
2023/01/01 07:39:18;;;;;;;9.18;7.30;;;15.70;72.30;;;;;;10398292;28;20030;-61
2023/01/01 07:44:19;;;;;;;9.15;7.93;;;15.70;72.20;;;;;;10397630;28;20722;-60
2023/01/01 07:49:19;;;;;;;8.15;7.35;;;15.70;72.20;;;;;;10411012;28;20057;-60
2023/01/01 07:54:20;;;;;;;9.88;6.95;;;15.70;72.30;;;;;;10413173;28;20058;-59
2023/01/01 07:59:21;;;;;;;9.43;7.25;;;15.70;72.30;;;;;;10373034;28;20410;-61
2023/01/01 08:04:21;;;;;;;7.88;7.07;;;15.70;72.20;;;;;;10383614;28;20113;-60
2023/01/01 08:09:22;;;;;;;7.75;6.85;;;15.70;72.30;;;;;;10370268;28;20121;-56
2023/01/01 08:14:24;;;;;;;8.70;7.55;;;15.70;72.30;;;;;;10369025;28;20038;-56
2023/01/01 08:19:25;;;;;;;8.25;7.45;;;15.70;72.30;;;;;;10382913;28;20029;-59
2023/01/01 08:24:25;;;;;;;9.88;7.00;;;15.70;72.40;;;;;;10368919;28;20069;-60
2023/01/01 08:29:26;;;;;;;8.20;7.13;;;15.70;72.40;;;;;;10378946;28;20145;-60
2023/01/01 08:34:27;;;;;;;7.93;6.75;;;15.70;72.40;;;;;;10365422;28;20438;-61
2023/01/01 08:39:28;;;;;;;8.18;6.82;;;15.70;72.40;;;;;;10366793;28;20030;-61
2023/01/01 08:44:28;;;;;;;7.78;6.78;;;15.70;72.40;;;;;;10371213;28;20490;-61
2023/01/01 08:49:29;;;;;;;7.47;6.68;;;15.70;72.40;;;;;;10372141;28;20037;-60
2023/01/01 08:54:29;;;;;;;7.45;6.45;;;15.70;72.50;;;;;;10377745;28;20057;-58
2023/01/01 08:59:30;;;;;;;7.03;6.32;;;15.70;72.50;;;;;;10375529;28;20046;-61
2023/01/01 09:04:31;;;;;;;9.38;6.97;;;15.70;72.40;;;;;;10379976;28;20034;-60
2023/01/01 09:09:31;;;;;;;7.25;6.50;;;15.70;72.30;;;;;;10375440;28;20113;-61
2023/01/01 09:14:33;;;;;;;6.45;5.80;;;15.70;72.20;;;;;;10367532;28;20609;-59
2023/01/01 09:19:34;;;;;;;7.45;6.60;;;15.80;72.20;;;;;;10402843;28;20380;-59
2023/01/01 09:24:35;;;;;;;7.03;6.03;;;15.80;72.30;;;;;;10380430;28;20040;-61
2023/01/01 09:29:35;;;;;;;7.13;5.97;;;15.70;72.20;;;;;;10393744;28;20140;-60
2023/01/01 09:34:36;;;;;;;6.75;5.93;;;15.70;72.30;;;;;;10404974;28;20124;-61
2023/01/01 09:39:37;;;;;;;6.40;5.30;;;15.70;72.30;;;;;;10366090;28;20176;-56
2023/01/01 09:44:59;;;;;;;6.90;5.88;;;15.80;72.90;;;;;;10365931;28;20129;-58
2023/01/01 09:50:11;;;;;;;6.10;5.20;;;15.80;72.40;;;;;;10373387;28;20018;-61
2023/01/01 09:55:21;;;;;;;8.38;6.53;;;15.80;72.30;;;;;;10385992;28;20025;-61
2023/01/01 10:00:22;;;;;;;7.15;5.70;;;15.70;72.30;;;;;;10366558;28;20022;-61
2023/01/01 10:05:34;;;;;;;9.05;6.68;;;15.70;72.30;;;;;;10365807;28;20030;-61
2023/01/01 10:11:06;;;;;;;6.10;5.43;;;15.80;72.40;;;;;;10380006;28;20026;-60
2023/01/01 10:16:17;;;;;;;7.65;6.15;;;15.70;72.30;;;;;;10365286;28;20693;-60
2023/01/01 10:21:27;;;;;;;7.15;5.85;;;15.70;72.40;;;;;;10376951;28;20036;-60
2023/01/01 10:26:29;;;;;;;5.47;4.97;;;15.70;72.40;;;;;;10383783;28;20036;-59
2023/01/01 10:31:38;;;;;;;5.40;4.40;;;15.70;72.50;;;;;;10364873;28;20018;-61
2023/01/01 10:36:38;;;;;;;5.97;5.20;;;15.70;72.50;;;;;;10394655;28;20056;-58
2023/01/01 10:41:39;;;;;;;6.53;5.82;;;15.70;72.50;;;;;;10392927;28;20436;-58
2023/01/01 10:46:53;;;;;;;6.25;5.13;;;15.70;72.50;;;;;;10379641;28;20124;-59
2023/01/01 10:51:54;;;;;;;5.13;4.63;;;15.70;72.60;;;;;;10389916;28;20034;-61
2023/01/01 10:56:55;;;;;;;6.05;4.85;;;15.70;72.50;;;;;;10371047;28;20065;-59
2023/01/01 11:02:20;;;;;;;6.68;5.28;;;15.70;72.50;;;;;;10363838;28;20022;-57
2023/01/01 11:07:33;;;;;;;6.57;4.35;;;15.70;72.50;;;;;;10363771;28;20042;-61
2023/01/01 11:12:36;;;;;;;6.18;4.30;;;15.70;72.50;;;;;;10392980;28;20037;-60
2023/01/01 11:17:37;;;;;;;5.60;4.70;;;15.70;72.60;;;;;;10396723;28;20025;-61
2023/01/01 11:22:40;;;;;;;4.97;4.35;;;15.70;72.50;;;;;;10403694;28;20112;-59
2023/01/01 11:27:40;;;;;;;6.00;4.53;;;15.80;72.50;;;;;;10380481;28;20114;-61
2023/01/01 11:32:41;;;;;;;6.55;5.20;;;15.70;72.40;;;;;;10381446;28;20152;-60
2023/01/01 11:37:45;;;;;;;6.03;4.45;;;15.70;72.40;;;;;;10409776;28;20025;-59
2023/01/01 11:42:51;;;;;;;6.10;4.80;;;15.70;72.50;;;;;;10410992;28;20021;-61
2023/01/01 11:47:59;;;;;;;4.82;4.30;;;15.70;72.50;;;;;;10371017;28;20462;-57
2023/01/01 11:53:21;;;;;;;6.32;4.80;;;15.70;72.40;;;;;;10401400;28;20009;-56
2023/01/01 11:58:43;;;;;;;5.75;4.28;;;15.70;72.50;;;;;;10405139;28;20060;-60
2023/01/01 12:04:00;;;;;;;5.50;4.80;;;15.70;72.50;;;;;;10369392;28;20081;-58
2023/01/01 12:09:14;;;;;;;4.63;3.88;;;15.80;72.50;;;;;;10369605;28;20042;-59
2023/01/01 12:14:31;;;;;;;4.82;4.18;;;15.80;72.60;;;;;;10369616;28;20105;-60
2023/01/01 12:20:05;;;;;;;5.22;4.30;;;15.80;72.60;;;;;;10368250;28;20026;-61
2023/01/01 12:25:12;;;;;;;7.00;4.95;;;15.80;72.50;;;;;;10395135;28;20034;-60
2023/01/01 12:30:54;;;;;;;6.15;4.68;;;15.70;72.50;;;;;;10383966;28;20045;-61
2023/01/01 12:36:36;;;;;;;5.22;3.83;;;15.80;72.60;;;;;;10353838;28;20441;-62
2023/01/01 12:41:54;;;;;;;5.40;4.03;;;15.80;72.60;;;;;;10369037;28;20110;-61
2023/01/01 12:47:25;;;;;;;5.47;3.83;;;15.80;72.50;;;;;;10396729;28;20044;-60
2023/01/01 12:52:41;;;;;;;4.85;3.83;;;15.80;72.50;;;;;;10409558;28;20017;-59
2023/01/01 12:58:14;;;;;;;5.05;3.50;;;15.80;72.40;;;;;;10366667;28;20093;-61
2023/01/01 13:03:23;;;;;;;5.18;3.35;;;15.80;72.50;;;;;;10366929;28;20097;-61
2023/01/01 13:08:23;;;;;;;4.57;3.80;;;15.80;72.50;;;;;;10395296;28;20473;-61
2023/01/01 13:13:25;;;;;;;4.35;3.33;;;15.80;72.50;;;;;;10367259;28;20109;-60
2023/01/01 13:18:33;;;;;;;4.80;3.67;;;15.70;72.50;;;;;;10394161;28;20135;-57
2023/01/01 13:23:40;;;;;;;4.40;3.50;;;15.80;72.60;;;;;;10390029;28;20493;-61
2023/01/01 13:28:41;;;;;;;4.55;3.45;;;15.80;72.60;;;;;;10363499;28;20124;-58
2023/01/01 13:33:42;;;;;;;7.93;3.40;;;15.80;72.60;;;;;;10366001;28;20018;-57
2023/01/01 13:38:51;;;;;;;5.47;3.40;;;15.70;72.60;;;;;;10366609;28;20037;-61
2023/01/01 13:44:01;;;;;;;7.70;3.72;;;15.70;72.50;;;;;;10366486;28;20017;-58
2023/01/01 13:49:33;;;;;;;12.45;4.18;;;15.70;72.60;;;;;;10373558;28;20613;-60
2023/01/01 13:54:59;;;;;;;9.40;3.95;;;15.80;73.00;;;;;;10387766;28;20075;-61
2023/01/01 14:00:27;;;;;;;5.07;3.47;;;15.90;73.00;;;;;;10401096;28;20096;-61
2023/01/01 14:05:36;;;;;;;7.82;3.47;;;16.10;73.60;;;;;;10377963;28;20038;-59
2023/01/01 14:10:37;;;;;;;6.05;3.22;;;16.40;73.90;;;;;;10372326;28;20028;-60
2023/01/01 14:15:43;;;;;;;10.63;4.18;;;16.60;73.00;;;;;;10365599;28;20053;-61
2023/01/01 14:20:52;;;;;;;10.13;4.10;;;16.60;72.90;;;;;;10374200;28;20068;-59
2023/01/01 14:25:53;;;;;;;12.87;3.77;;;16.50;72.60;;;;;;10389093;28;20084;-59
2023/01/01 14:30:55;;;;;;;11.40;3.80;;;16.30;74.10;;;;;;10332428;28;20034;-58
2023/01/01 14:35:59;;;;;;;15.15;4.22;;;16.20;74.70;;;;;;10351917;28;20022;-60
2023/01/01 14:41:17;;;;;;;8.60;3.53;;;16.20;74.90;;;;;;10366267;28;20442;-59
2023/01/01 14:46:22;;;;;;;6.05;3.50;;;16.20;75.00;;;;;;10358247;28;20100;-57
2023/01/01 14:51:30;;;;;;;11.02;3.70;;;16.20;75.20;;;;;;10338260;28;20422;-59
2023/01/01 14:56:35;;;;;;;7.40;3.22;;;16.20;75.20;;;;;;10377302;28;20056;-56
2023/01/01 15:01:35;;;;;;;9.30;3.03;;;16.20;75.10;;;;;;10370017;28;20033;-59
2023/01/01 15:06:40;;;;;;;5.63;3.00;;;16.10;75.10;;;;;;10380724;28;20507;-59
2023/01/01 15:11:41;;;;;;;8.15;3.08;;;16.10;75.10;;;;;;10376047;28;20029;-59
2023/01/01 15:16:42;;;;;;;7.88;4.32;;;16.10;75.40;;;;;;10326645;28;20111;-56
2023/01/01 15:21:42;;;;;;;7.53;3.33;;;16.20;75.30;;;;;;10335196;28;20022;-56
2023/01/01 15:26:54;;;;;;;10.98;3.05;;;16.20;75.30;;;;;;10347897;28;20044;-57
2023/01/01 15:32:05;;;;;;;11.20;2.92;;;16.50;75.00;;;;;;10338647;28;20015;-60
2023/01/01 15:37:17;;;;;;;9.77;3.33;;;16.60;74.40;;;;;;10302641;28;20039;-57
2023/01/01 15:42:39;;;;;;;7.13;3.30;;;16.80;73.90;;;;;;10334686;28;20026;-60
2023/01/01 15:47:40;;;;;;;4.88;3.40;;;17.00;73.60;;;;;;10343170;28;20047;-59
2023/01/01 15:52:43;;;;;;;6.30;3.25;;;17.00;73.30;;;;;;10347943;28;20489;-60
2023/01/01 15:57:46;;;;;;;4.95;2.35;;;17.10;73.40;;;;;;10324970;28;20068;-56
2023/01/01 16:02:50;;;;;;;5.18;2.80;;;17.00;73.70;;;;;;10319368;28;20046;-59
2023/01/01 16:08:03;;;;;;;6.80;2.55;;;17.00;73.70;;;;;;10309946;28;20026;-59
2023/01/01 16:13:04;;;;;;;7.03;2.40;;;17.00;74.10;;;;;;10341820;28;20516;-60
2023/01/01 16:18:16;;;;;;;8.35;2.40;;;17.10;74.00;;;;;;10335883;28;20097;-60
2023/01/01 16:23:17;;;;;;;8.50;2.40;;;17.10;73.80;;;;;;10346560;28;20438;-59
2023/01/01 16:28:18;;;;;;;6.85;2.38;;;17.20;73.30;;;;;;10334874;28;20031;-59
2023/01/01 16:33:21;;;;;;;10.50;3.08;;;17.00;74.20;;;;;;10321312;28;20026;-59
2023/01/01 16:38:22;;;;;;;7.43;3.15;;;17.00;74.50;;;;;;10329162;28;20021;-58
2023/01/01 16:43:22;;;;;;;7.55;3.40;;;17.00;74.80;;;;;;10344703;28;20108;-58
2023/01/01 16:48:23;;;;;;;6.07;2.35;;;17.00;74.00;;;;;;10367207;28;20044;-60
2023/01/01 16:53:24;;;;;;;8.30;3.40;;;17.30;72.80;;;;;;10357639;28;20072;-57
2023/01/01 16:58:24;;;;;;;5.57;3.25;;;17.30;72.20;;;;;;10365086;28;20105;-58
2023/01/01 17:03:25;;;;;;;5.35;2.95;;;17.00;72.90;;;;;;10367133;28;20061;-58
2023/01/01 17:08:26;;;;;;;6.80;3.22;;;17.20;72.00;;;;;;10358086;28;20559;-58
2023/01/01 17:13:27;;;;;;;10.80;4.45;;;17.30;71.70;;;;;;10375835;28;20737;-58
2023/01/01 17:18:28;;;;;;;11.40;5.25;;;17.20;71.90;;;;;;10343187;28;20113;-59
2023/01/01 17:23:29;;;;;;;17.60;8.90;;;17.40;71.50;;;;;;10337693;28;20027;-58
2023/01/01 17:28:29;;;;;;;24.67;13.68;;;17.40;71.00;;;;;;10346556;28;20042;-58
2023/01/01 17:33:30;;;;;;;32.22;18.10;;;17.30;70.80;;;;;;10366454;28;20046;-56
2023/01/01 17:38:32;;;;;;;42.30;22.83;;;17.40;73.00;;;;;;10360134;28;20037;-61
2023/01/01 17:43:34;;;;;;;36.90;21.23;;;17.60;72.80;;;;;;10378033;28;20026;-59
2023/01/01 17:48:35;;;;;;;51.65;23.48;;;17.80;73.20;;;;;;10376102;28;20042;-59
2023/01/01 17:53:37;;;;;;;34.70;20.48;;;17.70;73.00;;;;;;10364662;28;20015;-57
2023/01/01 17:58:39;;;;;;;44.80;22.23;;;17.70;72.70;;;;;;10380075;28;20029;-56
2023/01/01 18:03:40;;;;;;;54.30;24.25;;;17.40;72.80;;;;;;10367464;28;20026;-56
2023/01/01 18:08:41;;;;;;;38.63;21.35;;;17.20;73.10;;;;;;10365349;28;20405;-59
2023/01/01 18:13:41;;;;;;;36.50;20.90;;;17.00;73.50;;;;;;10380086;28;20068;-59
2023/01/01 18:18:43;;;;;;;33.53;19.75;;;16.90;73.50;;;;;;10348286;28;20496;-58
2023/01/01 18:23:44;;;;;;;33.10;18.77;;;16.80;73.60;;;;;;10355706;28;20038;-55
2023/01/01 18:28:53;;;;;;;33.75;18.17;;;16.80;73.80;;;;;;10357419;28;20058;-56
2023/01/01 18:33:54;;;;;;;33.63;17.13;;;16.80;74.70;;;;;;10372031;28;20770;-57
2023/01/01 18:39:21;;;;;;;29.63;18.38;;;16.80;74.70;;;;;;10375813;28;20022;-58
2023/01/01 18:44:25;;;;;;;33.42;16.88;;;16.80;74.20;;;;;;10379316;28;20058;-57
2023/01/01 18:49:26;;;;;;;28.00;16.20;;;16.70;74.10;;;;;;10373444;28;20026;-59
2023/01/01 18:54:28;;;;;;;30.73;17.55;;;16.70;74.20;;;;;;10378989;28;20620;-59
2023/01/01 18:59:29;;;;;;;33.10;17.73;;;16.60;74.20;;;;;;10378344;28;20022;-55
2023/01/01 19:04:29;;;;;;;28.55;18.38;;;16.60;74.40;;;;;;10359391;28;20050;-53
2023/01/01 19:09:30;;;;;;;28.48;19.80;;;16.70;74.60;;;;;;10363670;28;20058;-54
2023/01/01 19:14:31;;;;;;;32.47;20.55;;;16.70;74.60;;;;;;10379103;28;20014;-58
2023/01/01 19:19:38;;;;;;;31.65;21.70;;;16.80;74.70;;;;;;10361391;28;20485;-56
2023/01/01 19:24:42;;;;;;;30.27;21.35;;;16.80;74.80;;;;;;10374517;28;20030;-56
2023/01/01 19:29:45;;;;;;;27.15;20.63;;;16.70;75.00;;;;;;10371573;28;20029;-59
2023/01/01 19:34:46;;;;;;;34.38;22.55;;;16.70;75.00;;;;;;10342164;28;20018;-59
2023/01/01 19:39:49;;;;;;;31.60;21.73;;;16.60;75.60;;;;;;10367626;28;20026;-55
2023/01/01 19:44:49;;;;;;;36.67;23.35;;;16.60;74.90;;;;;;10367405;28;20042;-59
2023/01/01 19:49:50;;;;;;;29.55;21.73;;;16.50;75.10;;;;;;10359874;28;20442;-56
2023/01/01 19:54:51;;;;;;;32.50;22.85;;;16.50;75.10;;;;;;10374315;28;20473;-59
2023/01/01 19:59:51;;;;;;;28.05;22.20;;;16.50;75.10;;;;;;10379439;28;20186;-59
2023/01/01 20:04:52;;;;;;;28.55;21.85;;;16.40;75.10;;;;;;10361465;28;20097;-60
2023/01/01 20:09:53;;;;;;;29.50;22.23;;;16.40;75.10;;;;;;10381298;28;20105;-60
2023/01/01 20:14:55;;;;;;;31.65;23.35;;;16.40;75.00;;;;;;10356790;28;20066;-59
2023/01/01 20:19:55;;;;;;;25.67;20.25;;;16.40;75.10;;;;;;10356411;28;20629;-57
2023/01/01 20:24:56;;;;;;;27.73;22.20;;;16.30;75.00;;;;;;10383090;28;20030;-59
2023/01/01 20:29:57;;;;;;;28.05;20.80;;;16.30;75.00;;;;;;10358123;28;20061;-59
2023/01/01 20:34:58;;;;;;;24.98;21.08;;;16.30;75.00;;;;;;10369398;28;20049;-59
2023/01/01 20:39:58;;;;;;;23.80;19.95;;;16.30;75.00;;;;;;10384183;28;20060;-59
2023/01/01 20:44:59;;;;;;;27.75;19.75;;;16.20;74.90;;;;;;10368740;28;20069;-57
2023/01/01 20:49:59;;;;;;;22.27;18.45;;;16.30;75.00;;;;;;10361866;28;20022;-59
2023/01/01 20:55:00;;;;;;;25.90;18.42;;;16.20;74.90;;;;;;10354364;28;20154;-59
2023/01/01 21:00:01;;;;;;;24.63;18.58;;;16.20;74.80;;;;;;10365166;28;20113;-59
2023/01/01 21:05:03;;;;;;;22.42;18.23;;;16.20;74.80;;;;;;10367745;28;20142;-57
2023/01/01 21:10:05;;;;;;;25.13;19.67;;;16.20;74.80;;;;;;10382514;28;20543;-59
2023/01/01 21:15:15;;;;;;;26.88;19.33;;;16.20;74.80;;;;;;10367590;28;20030;-59
2023/01/01 21:20:16;;;;;;;24.58;18.98;;;16.20;74.80;;;;;;10365939;28;20113;-57
2023/01/01 21:25:26;;;;;;;22.02;17.40;;;16.20;74.80;;;;;;10362725;28;20019;-59
2023/01/01 21:30:26;;;;;;;21.95;16.70;;;16.20;74.80;;;;;;10359651;28;20426;-57
2023/01/01 21:35:32;;;;;;;18.48;16.27;;;16.20;74.70;;;;;;10366667;28;20022;-58
2023/01/01 21:40:41;;;;;;;21.42;15.15;;;16.10;74.70;;;;;;10366472;28;20026;-58
2023/01/01 21:45:46;;;;;;;22.15;15.93;;;16.10;74.60;;;;;;10369256;28;20050;-59
2023/01/01 21:50:50;;;;;;;23.17;15.15;;;16.10;74.60;;;;;;10367620;28;20457;-58
2023/01/01 21:55:53;;;;;;;17.73;14.43;;;16.10;74.60;;;;;;10380704;28;20038;-57
2023/01/01 22:00:54;;;;;;;19.15;14.40;;;16.10;74.60;;;;;;10381060;28;20136;-60
2023/01/01 22:05:55;;;;;;;21.48;13.82;;;16.10;74.60;;;;;;10380518;28;20117;-56
2023/01/01 22:10:56;;;;;;;18.45;13.63;;;16.10;74.60;;;;;;10365632;28;20053;-57
2023/01/01 22:15:57;;;;;;;22.58;13.38;;;16.10;74.60;;;;;;10351600;28;20022;-59
2023/01/01 22:21:01;;;;;;;18.65;13.63;;;16.10;74.50;;;;;;10365505;28;20101;-55
2023/01/01 22:26:18;;;;;;;15.57;12.35;;;16.10;74.60;;;;;;10356669;28;20026;-59
2023/01/01 22:31:25;;;;;;;14.68;11.48;;;16.10;74.50;;;;;;10362643;28;20014;-59
2023/01/01 22:36:29;;;;;;;15.13;11.88;;;16.10;74.40;;;;;;10342559;28;20018;-58
2023/01/01 22:41:29;;;;;;;14.70;11.38;;;16.10;74.40;;;;;;10379957;28;20728;-56
2023/01/01 22:46:37;;;;;;;15.07;11.23;;;16.10;74.40;;;;;;10364346;28;20156;-59
2023/01/01 22:51:42;;;;;;;16.35;11.55;;;16.00;74.40;;;;;;10366793;28;20152;-59
2023/01/01 22:56:42;;;;;;;12.85;10.45;;;16.00;74.50;;;;;;10338281;28;20053;-59
2023/01/01 23:01:43;;;;;;;13.52;9.20;;;16.00;74.50;;;;;;10379358;28;20036;-60
2023/01/01 23:06:44;;;;;;;12.18;10.60;;;16.00;74.40;;;;;;10363839;28;20038;-60
2023/01/01 23:11:45;;;;;;;15.25;9.45;;;16.00;74.40;;;;;;10363745;28;20435;-56
2023/01/01 23:16:45;;;;;;;12.95;9.10;;;16.00;74.40;;;;;;10363935;28;20030;-60
2023/01/01 23:21:46;;;;;;;11.95;9.07;;;16.00;74.40;;;;;;10378715;28;20517;-56
2023/01/01 23:26:48;;;;;;;13.57;9.00;;;16.00;74.40;;;;;;10365692;28;20121;-57
2023/01/01 23:31:49;;;;;;;12.60;8.50;;;16.00;74.40;;;;;;10386694;28;20018;-59
2023/01/01 23:36:52;;;;;;;11.85;9.45;;;16.00;74.40;;;;;;10373168;28;20029;-57
2023/01/01 23:41:52;;;;;;;13.75;8.70;;;16.00;74.40;;;;;;10386177;28;20014;-59
2023/01/01 23:46:54;;;;;;;11.80;7.88;;;15.90;74.40;;;;;;10370860;28;20050;-60
2023/01/01 23:51:55;;;;;;;9.98;7.10;;;16.00;74.40;;;;;;10372851;28;20461;-58
2023/01/01 23:56:55;;;;;;;11.00;7.93;;;15.90;74.30;;;;;;10385696;28;20034;-59
